Terminal Aerodrome Forecast
Issued by NWS

Home | Current Version | Previous Version | Text Only | Print | Product List | Glossary On
Versions: 1 2 3 4 5 6 7 8 9 10 11 12 13 14 15 16 17 18 19 20
475
FTUS43 KILX 261130
TAFBMI
TAF
KBMI 261130Z 2612/2712 16006KT P6SM BKN250
     FM261600 18007KT P6SM SCT025 BKN060
     FM270200 18005KT P6SM VCTS SCT050CB BKN250
     FM270500 16004KT 6SM -TSRA SCT025 OVC050CB
     FM270800 21004KT 4SM SHRA VCTS OVC010CB=

USA.gov is the U.S. government's official web portal to all federal, state and local government web resources and services.